sensor_id;sensor_type;location;lat;lon;timestamp;temperature;humidity
23869;DHT22;12115;47.128;15.422;2022-10-19T00:03:34;12.90;99.90
23869;DHT22;12115;47.128;15.422;2022-10-19T00:06:21;12.90;99.90
23869;DHT22;12115;47.128;15.422;2022-10-19T00:11:23;12.90;99.90
23869;DHT22;12115;47.128;15.422;2022-10-19T00:13:51;12.90;99.90
23869;DHT22;12115;47.128;15.422;2022-10-19T00:16:19;12.90;99.90
23869;DHT22;12115;47.128;15.422;2022-10-19T00:18:46;12.90;99.90
23869;DHT22;12115;47.128;15.422;2022-10-19T00:21:15;12.90;99.90
23869;DHT22;12115;47.128;15.422;2022-10-19T00:23:43;13.00;99.90
23869;DHT22;12115;47.128;15.422;2022-10-19T00:26:11;12.90;99.90
23869;DHT22;12115;47.128;15.422;2022-10-19T00:28:39;12.90;99.90
23869;DHT22;12115;47.128;15.422;2022-10-19T00:31:13;12.90;99.90
23869;DHT22;12115;47.128;15.422;2022-10-19T00:33:42;12.90;99.90
23869;DHT22;12115;47.128;15.422;2022-10-19T00:36:16;12.90;99.90
23869;DHT22;12115;47.128;15.422;2022-10-19T00:38:44;13.00;99.90
23869;DHT22;12115;47.128;15.422;2022-10-19T00:41:17;13.00;99.90
23869;DHT22;12115;47.128;15.422;2022-10-19T00:44:01;13.00;99.90
23869;DHT22;12115;47.128;15.422;2022-10-19T00:46:31;13.00;99.90
23869;DHT22;12115;47.128;15.422;2022-10-19T00:49:15;13.00;99.90
23869;DHT22;12115;47.128;15.422;2022-10-19T00:51:50;13.00;99.90
23869;DHT22;12115;47.128;15.422;2022-10-19T00:54:18;13.10;99.90
23869;DHT22;12115;47.128;15.422;2022-10-19T00:56:47;13.00;99.90
23869;DHT22;12115;47.128;15.422;2022-10-19T00:59:17;13.10;99.90
23869;DHT22;12115;47.128;15.422;2022-10-19T01:01:47;13.00;99.90
23869;DHT22;12115;47.128;15.422;2022-10-19T01:04:14;13.00;99.90
23869;DHT22;12115;47.128;15.422;2022-10-19T01:06:42;13.00;99.90
23869;DHT22;12115;47.128;15.422;2022-10-19T01:09:09;13.00;99.90
23869;DHT22;12115;47.128;15.422;2022-10-19T01:29:00;12.80;99.90
23869;DHT22;12115;47.128;15.422;2022-10-19T01:31:44;12.90;99.90
23869;DHT22;12115;47.128;15.422;2022-10-19T01:37:21;12.80;99.90
23869;DHT22;12115;47.128;15.422;2022-10-19T01:43:17;12.70;99.90
23869;DHT22;12115;47.128;15.422;2022-10-19T01:45:26;12.60;99.90
23869;DHT22;12115;47.128;15.422;2022-10-19T01:48:09;12.60;99.90
23869;DHT22;12115;47.128;15.422;2022-10-19T01:51:06;12.50;99.90
23869;DHT22;12115;47.128;15.422;2022-10-19T01:53:40;12.50;99.90
23869;DHT22;12115;47.128;15.422;2022-10-19T01:56:08;12.50;99.90
23869;DHT22;12115;47.128;15.422;2022-10-19T01:58:38;12.50;99.90
23869;DHT22;12115;47.128;15.422;2022-10-19T02:01:08;12.50;99.90
23869;DHT22;12115;47.128;15.422;2022-10-19T02:03:38;12.40;99.90
23869;DHT22;12115;47.128;15.422;2022-10-19T02:06:08;12.40;99.90
23869;DHT22;12115;47.128;15.422;2022-10-19T02:09:01;12.20;99.90
23869;DHT22;12115;47.128;15.422;2022-10-19T02:11:29;12.20;99.90
23869;DHT22;12115;47.128;15.422;2022-10-19T02:14:03;12.20;99.90
23869;DHT22;12115;47.128;15.422;2022-10-19T02:16:45;12.30;99.90
23869;DHT22;12115;47.128;15.422;2022-10-19T02:19:14;12.30;99.90
23869;DHT22;12115;47.128;15.422;2022-10-19T02:21:42;12.30;99.90
23869;DHT22;12115;47.128;15.422;2022-10-19T02:24:15;12.30;99.90
23869;DHT22;12115;47.128;15.422;2022-10-19T02:26:52;12.30;99.90
23869;DHT22;12115;47.128;15.422;2022-10-19T02:29:25;12.20;99.90
23869;DHT22;12115;47.128;15.422;2022-10-19T02:31:59;12.20;99.90
23869;DHT22;12115;47.128;15.422;2022-10-19T02:34:26;12.10;99.90
23869;DHT22;12115;47.128;15.422;2022-10-19T02:36:58;12.10;99.90
23869;DHT22;12115;47.128;15.422;2022-10-19T02:39:28;12.10;99.90
23869;DHT22;12115;47.128;15.422;2022-10-19T02:42:16;12.00;99.90
23869;DHT22;12115;47.128;15.422;2022-10-19T02:44:57;12.00;99.90
23869;DHT22;12115;47.128;15.422;2022-10-19T02:47:59;12.00;99.90
23869;DHT22;12115;47.128;15.422;2022-10-19T02:50:25;12.00;99.90
23869;DHT22;12115;47.128;15.422;2022-10-19T02:52:52;11.90;99.90
23869;DHT22;12115;47.128;15.422;2022-10-19T02:55:19;12.00;99.90
23869;DHT22;12115;47.128;15.422;2022-10-19T02:57:46;12.00;99.90
23869;DHT22;12115;47.128;15.422;2022-10-19T03:00:13;12.00;99.90
23869;DHT22;12115;47.128;15.422;2022-10-19T03:02:41;11.90;99.90
23869;DHT22;12115;47.128;15.422;2022-10-19T03:05:08;11.90;99.90
23869;DHT22;12115;47.128;15.422;2022-10-19T03:07:35;11.80;99.90
23869;DHT22;12115;47.128;15.422;2022-10-19T03:10:03;11.80;99.90
23869;DHT22;12115;47.128;15.422;2022-10-19T03:12:30;11.70;99.90
23869;DHT22;12115;47.128;15.422;2022-10-19T03:14:57;11.80;99.90
23869;DHT22;12115;47.128;15.422;2022-10-19T03:17:24;11.70;99.90
23869;DHT22;12115;47.128;15.422;2022-10-19T03:19:51;11.70;99.90
23869;DHT22;12115;47.128;15.422;2022-10-19T03:22:18;11.60;99.90
23869;DHT22;12115;47.128;15.422;2022-10-19T03:24:45;11.60;99.90
23869;DHT22;12115;47.128;15.422;2022-10-19T03:27:13;11.50;99.90
23869;DHT22;12115;47.128;15.422;2022-10-19T03:29:40;11.50;99.90
23869;DHT22;12115;47.128;15.422;2022-10-19T03:32:07;11.50;99.90
23869;DHT22;12115;47.128;15.422;2022-10-19T03:34:34;11.50;99.90
23869;DHT22;12115;47.128;15.422;2022-10-19T03:37:01;11.50;99.90
23869;DHT22;12115;47.128;15.422;2022-10-19T03:39:28;11.50;99.90
23869;DHT22;12115;47.128;15.422;2022-10-19T03:41:55;11.60;99.90
23869;DHT22;12115;47.128;15.422;2022-10-19T03:44:22;11.60;99.90
23869;DHT22;12115;47.128;15.422;2022-10-19T03:46:49;11.50;99.90
23869;DHT22;12115;47.128;15.422;2022-10-19T03:49:16;11.60;99.90
23869;DHT22;12115;47.128;15.422;2022-10-19T03:51:44;11.70;99.90
23869;DHT22;12115;47.128;15.422;2022-10-19T03:54:12;11.60;99.90
23869;DHT22;12115;47.128;15.422;2022-10-19T03:56:41;11.70;99.90
23869;DHT22;12115;47.128;15.422;2022-10-19T03:59:12;11.70;99.90
23869;DHT22;12115;47.128;15.422;2022-10-19T04:01:42;11.70;99.90
23869;DHT22;12115;47.128;15.422;2022-10-19T04:04:13;11.80;99.90
23869;DHT22;12115;47.128;15.422;2022-10-19T04:06:42;11.70;99.90
23869;DHT22;12115;47.128;15.422;2022-10-19T04:09:16;11.80;99.90
23869;DHT22;12115;47.128;15.422;2022-10-19T04:11:43;11.80;99.90
23869;DHT22;12115;47.128;15.422;2022-10-19T04:14:12;11.80;99.90
23869;DHT22;12115;47.128;15.422;2022-10-19T04:16:52;11.80;99.90
23869;DHT22;12115;47.128;15.422;2022-10-19T04:19:19;11.70;99.90
23869;DHT22;12115;47.128;15.422;2022-10-19T04:21:48;11.80;99.90
23869;DHT22;12115;47.128;15.422;2022-10-19T04:24:17;11.80;99.90
23869;DHT22;12115;47.128;15.422;2022-10-19T04:26:48;11.80;99.90
23869;DHT22;12115;47.128;15.422;2022-10-19T04:29:18;11.80;99.90
23869;DHT22;12115;47.128;15.422;2022-10-19T04:32:01;11.90;99.90
23869;DHT22;12115;47.128;15.422;2022-10-19T04:34:31;11.90;99.90
23869;DHT22;12115;47.128;15.422;2022-10-19T04:37:19;11.90;99.90
23869;DHT22;12115;47.128;15.422;2022-10-19T04:39:53;11.90;99.90
23869;DHT22;12115;47.128;15.422;2022-10-19T04:42:24;11.90;99.90
23869;DHT22;12115;47.128;15.422;2022-10-19T04:44:52;11.90;99.90
23869;DHT22;12115;47.128;15.422;2022-10-19T04:47:19;11.90;99.90
23869;DHT22;12115;47.128;15.422;2022-10-19T04:49:46;12.00;99.90
23869;DHT22;12115;47.128;15.422;2022-10-19T04:52:13;12.00;99.90
23869;DHT22;12115;47.128;15.422;2022-10-19T04:54:40;12.00;99.90
23869;DHT22;12115;47.128;15.422;2022-10-19T04:57:07;12.00;99.90
23869;DHT22;12115;47.128;15.422;2022-10-19T04:59:34;12.00;99.90
23869;DHT22;12115;47.128;15.422;2022-10-19T05:02:01;12.00;99.90
23869;DHT22;12115;47.128;15.422;2022-10-19T05:04:28;12.00;99.90
23869;DHT22;12115;47.128;15.422;2022-10-19T05:06:55;12.00;99.90
23869;DHT22;12115;47.128;15.422;2022-10-19T05:09:23;12.10;99.90
23869;DHT22;12115;47.128;15.422;2022-10-19T05:11:50;12.10;99.90
23869;DHT22;12115;47.128;15.422;2022-10-19T05:14:17;12.10;99.90
23869;DHT22;12115;47.128;15.422;2022-10-19T05:16:44;12.10;99.90
23869;DHT22;12115;47.128;15.422;2022-10-19T05:19:14;12.20;99.90
23869;DHT22;12115;47.128;15.422;2022-10-19T05:21:41;12.20;99.90
23869;DHT22;12115;47.128;15.422;2022-10-19T05:24:11;12.20;99.90
23869;DHT22;12115;47.128;15.422;2022-10-19T05:26:38;12.20;99.90
23869;DHT22;12115;47.128;15.422;2022-10-19T05:29:05;12.20;99.90
23869;DHT22;12115;47.128;15.422;2022-10-19T05:31:33;12.20;99.90
23869;DHT22;12115;47.128;15.422;2022-10-19T05:34:00;12.20;99.90
23869;DHT22;12115;47.128;15.422;2022-10-19T05:36:31;12.20;99.90
23869;DHT22;12115;47.128;15.422;2022-10-19T05:39:05;12.20;99.90
23869;DHT22;12115;47.128;15.422;2022-10-19T05:41:33;12.30;99.90
23869;DHT22;12115;47.128;15.422;2022-10-19T05:44:01;12.30;99.90
23869;DHT22;12115;47.128;15.422;2022-10-19T05:46:30;12.30;99.90
23869;DHT22;12115;47.128;15.422;2022-10-19T05:48:58;12.40;99.90
23869;DHT22;12115;47.128;15.422;2022-10-19T05:51:26;12.40;99.90
23869;DHT22;12115;47.128;15.422;2022-10-19T05:53:54;12.40;99.90
23869;DHT22;12115;47.128;15.422;2022-10-19T05:56:24;12.40;99.90
23869;DHT22;12115;47.128;15.422;2022-10-19T05:58:53;12.50;99.90
23869;DHT22;12115;47.128;15.422;2022-10-19T06:01:21;12.50;99.90
23869;DHT22;12115;47.128;15.422;2022-10-19T06:03:53;12.50;99.90
23869;DHT22;12115;47.128;15.422;2022-10-19T06:06:20;12.60;99.90
23869;DHT22;12115;47.128;15.422;2022-10-19T06:08:48;12.60;99.90
23869;DHT22;12115;47.128;15.422;2022-10-19T06:11:18;12.80;99.90
23869;DHT22;12115;47.128;15.422;2022-10-19T06:13:54;12.80;99.90
23869;DHT22;12115;47.128;15.422;2022-10-19T06:16:23;12.90;99.90
23869;DHT22;12115;47.128;15.422;2022-10-19T06:18:54;13.00;99.90
23869;DHT22;12115;47.128;15.422;2022-10-19T06:21:27;13.10;99.90
23869;DHT22;12115;47.128;15.422;2022-10-19T06:24:08;13.10;99.90
23869;DHT22;12115;47.128;15.422;2022-10-19T06:26:41;13.30;99.90
23869;DHT22;12115;47.128;15.422;2022-10-19T06:29:11;13.40;99.90
23869;DHT22;12115;47.128;15.422;2022-10-19T06:31:43;13.50;99.90
23869;DHT22;12115;47.128;15.422;2022-10-19T06:34:17;13.60;99.90
23869;DHT22;12115;47.128;15.422;2022-10-19T06:36:45;13.70;99.90
23869;DHT22;12115;47.128;15.422;2022-10-19T06:39:13;13.70;99.90
23869;DHT22;12115;47.128;15.422;2022-10-19T06:41:48;13.70;99.90
23869;DHT22;12115;47.128;15.422;2022-10-19T06:44:17;13.70;99.90
23869;DHT22;12115;47.128;15.422;2022-10-19T06:46:55;13.80;99.90
23869;DHT22;12115;47.128;15.422;2022-10-19T06:49:23;13.80;99.90
23869;DHT22;12115;47.128;15.422;2022-10-19T06:52:07;13.90;99.90
23869;DHT22;12115;47.128;15.422;2022-10-19T06:54:37;14.10;99.90
23869;DHT22;12115;47.128;15.422;2022-10-19T06:57:11;14.20;99.90
23869;DHT22;12115;47.128;15.422;2022-10-19T06:59:52;14.30;99.90
23869;DHT22;12115;47.128;15.422;2022-10-19T07:02:38;14.20;99.90
23869;DHT22;12115;47.128;15.422;2022-10-19T07:05:09;14.30;99.90
23869;DHT22;12115;47.128;15.422;2022-10-19T07:07:52;14.70;99.90
23869;DHT22;12115;47.128;15.422;2022-10-19T07:10:28;15.40;99.90
23869;DHT22;12115;47.128;15.422;2022-10-19T07:12:57;15.90;99.90
23869;DHT22;12115;47.128;15.422;2022-10-19T07:15:27;16.40;99.90
23869;DHT22;12115;47.128;15.422;2022-10-19T07:18:02;16.50;99.90
23869;DHT22;12115;47.128;15.422;2022-10-19T07:20:32;16.80;99.90
23869;DHT22;12115;47.128;15.422;2022-10-19T07:23:07;17.20;99.90
23869;DHT22;12115;47.128;15.422;2022-10-19T07:25:40;17.70;99.90
23869;DHT22;12115;47.128;15.422;2022-10-19T07:28:18;18.40;99.90
23869;DHT22;12115;47.128;15.422;2022-10-19T07:30:54;18.40;99.90
23869;DHT22;12115;47.128;15.422;2022-10-19T07:33:26;18.10;99.90
23869;DHT22;12115;47.128;15.422;2022-10-19T07:36:06;17.90;99.90
23869;DHT22;12115;47.128;15.422;2022-10-19T07:38:48;18.00;99.90
23869;DHT22;12115;47.128;15.422;2022-10-19T07:41:29;17.80;99.90
23869;DHT22;12115;47.128;15.422;2022-10-19T07:44:10;17.60;99.90
23869;DHT22;12115;47.128;15.422;2022-10-19T07:46:49;17.50;99.90
23869;DHT22;12115;47.128;15.422;2022-10-19T07:49:27;17.30;99.90
23869;DHT22;12115;47.128;15.422;2022-10-19T07:52:13;17.10;99.90
23869;DHT22;12115;47.128;15.422;2022-10-19T07:54:48;16.80;99.90
23869;DHT22;12115;47.128;15.422;2022-10-19T07:57:23;16.60;99.90
23869;DHT22;12115;47.128;15.422;2022-10-19T08:00:20;16.50;99.90
23869;DHT22;12115;47.128;15.422;2022-10-19T08:02:51;16.40;99.90
23869;DHT22;12115;47.128;15.422;2022-10-19T08:05:41;16.40;99.90
23869;DHT22;12115;47.128;15.422;2022-10-19T08:08:17;16.50;99.90
23869;DHT22;12115;47.128;15.422;2022-10-19T08:10:48;16.60;99.90
23869;DHT22;12115;47.128;15.422;2022-10-19T08:13:19;18.00;99.90
23869;DHT22;12115;47.128;15.422;2022-10-19T08:15:56;18.10;99.90
23869;DHT22;12115;47.128;15.422;2022-10-19T08:18:31;18.60;99.90
23869;DHT22;12115;47.128;15.422;2022-10-19T08:21:01;18.30;99.90
23869;DHT22;12115;47.128;15.422;2022-10-19T08:23:29;18.00;99.90
23869;DHT22;12115;47.128;15.422;2022-10-19T08:26:00;18.10;99.90
23869;DHT22;12115;47.128;15.422;2022-10-19T08:28:27;18.60;99.90
23869;DHT22;12115;47.128;15.422;2022-10-19T08:30:54;18.90;99.90
23869;DHT22;12115;47.128;15.422;2022-10-19T08:33:25;18.70;99.90
23869;DHT22;12115;47.128;15.422;2022-10-19T08:35:52;18.80;99.90
23869;DHT22;12115;47.128;15.422;2022-10-19T08:38:19;19.50;99.90
23869;DHT22;12115;47.128;15.422;2022-10-19T08:40:47;19.60;99.90
23869;DHT22;12115;47.128;15.422;2022-10-19T08:43:33;19.50;99.90
23869;DHT22;12115;47.128;15.422;2022-10-19T08:46:19;19.20;99.90
23869;DHT22;12115;47.128;15.422;2022-10-19T08:48:48;18.90;99.90
23869;DHT22;12115;47.128;15.422;2022-10-19T08:51:23;19.00;99.90
23869;DHT22;12115;47.128;15.422;2022-10-19T08:53:57;20.00;99.90
23869;DHT22;12115;47.128;15.422;2022-10-19T08:56:39;21.10;99.90
23869;DHT22;12115;47.128;15.422;2022-10-19T08:59:44;21.20;99.90
23869;DHT22;12115;47.128;15.422;2022-10-19T09:05:31;19.60;99.90
23869;DHT22;12115;47.128;15.422;2022-10-19T09:08:03;19.00;99.90
23869;DHT22;12115;47.128;15.422;2022-10-19T09:10:45;18.70;99.90
23869;DHT22;12115;47.128;15.422;2022-10-19T09:13:45;18.60;99.90
23869;DHT22;12115;47.128;15.422;2022-10-19T09:16:33;18.30;99.90
23869;DHT22;12115;47.128;15.422;2022-10-19T09:19:26;18.40;99.90
23869;DHT22;12115;47.128;15.422;2022-10-19T09:22:30;18.30;99.90
23869;DHT22;12115;47.128;15.422;2022-10-19T09:25:17;18.20;99.90
23869;DHT22;12115;47.128;15.422;2022-10-19T09:34:25;17.90;99.90
23869;DHT22;12115;47.128;15.422;2022-10-19T09:36:55;17.90;99.90
23869;DHT22;12115;47.128;15.422;2022-10-19T09:39:24;17.90;99.90
23869;DHT22;12115;47.128;15.422;2022-10-19T09:41:56;17.90;99.90
23869;DHT22;12115;47.128;15.422;2022-10-19T09:44:24;17.90;99.90
23869;DHT22;12115;47.128;15.422;2022-10-19T09:47:01;18.00;99.90
23869;DHT22;12115;47.128;15.422;2022-10-19T09:49:42;18.10;99.90
23869;DHT22;12115;47.128;15.422;2022-10-19T09:57:41;18.40;99.90
23869;DHT22;12115;47.128;15.422;2022-10-19T10:00:30;19.70;99.90
23869;DHT22;12115;47.128;15.422;2022-10-19T10:02:58;24.70;99.90
23869;DHT22;12115;47.128;15.422;2022-10-19T10:05:46;25.90;99.90
23869;DHT22;12115;47.128;15.422;2022-10-19T10:08:17;26.90;98.60
23869;DHT22;12115;47.128;15.422;2022-10-19T10:13:48;25.50;99.90
23869;DHT22;12115;47.128;15.422;2022-10-19T10:16:17;24.30;99.90
23869;DHT22;12115;47.128;15.422;2022-10-19T10:19:09;23.80;99.90
23869;DHT22;12115;47.128;15.422;2022-10-19T10:21:51;22.90;99.90
23869;DHT22;12115;47.128;15.422;2022-10-19T10:24:23;22.00;99.90
23869;DHT22;12115;47.128;15.422;2022-10-19T10:26:54;23.00;99.90
23869;DHT22;12115;47.128;15.422;2022-10-19T10:32:07;22.70;99.90
23869;DHT22;12115;47.128;15.422;2022-10-19T10:35:00;22.50;99.90
23869;DHT22;12115;47.128;15.422;2022-10-19T10:37:44;22.20;99.90
23869;DHT22;12115;47.128;15.422;2022-10-19T10:40:25;21.80;99.90
23869;DHT22;12115;47.128;15.422;2022-10-19T10:42:56;22.10;99.90
23869;DHT22;12115;47.128;15.422;2022-10-19T10:45:35;22.00;99.90
23869;DHT22;12115;47.128;15.422;2022-10-19T10:48:30;21.80;99.90
23869;DHT22;12115;47.128;15.422;2022-10-19T10:51:00;22.00;99.90
23869;DHT22;12115;47.128;15.422;2022-10-19T10:53:35;21.80;99.90
23869;DHT22;12115;47.128;15.422;2022-10-19T10:56:04;22.00;99.90
23869;DHT22;12115;47.128;15.422;2022-10-19T10:58:40;21.90;99.90
23869;DHT22;12115;47.128;15.422;2022-10-19T11:01:17;21.80;99.90
23869;DHT22;12115;47.128;15.422;2022-10-19T11:03:50;21.20;99.90
23869;DHT22;12115;47.128;15.422;2022-10-19T11:06:20;20.90;99.90
23869;DHT22;12115;47.128;15.422;2022-10-19T11:08:58;20.80;99.90
23869;DHT22;12115;47.128;15.422;2022-10-19T11:11:46;20.70;99.90
23869;DHT22;12115;47.128;15.422;2022-10-19T11:14:28;20.70;99.90
23869;DHT22;12115;47.128;15.422;2022-10-19T11:17:04;20.60;99.90
23869;DHT22;12115;47.128;15.422;2022-10-19T11:22:24;20.80;99.90
23869;DHT22;12115;47.128;15.422;2022-10-19T11:25:29;20.70;99.90
23869;DHT22;12115;47.128;15.422;2022-10-19T11:33:48;20.60;99.90
23869;DHT22;12115;47.128;15.422;2022-10-19T11:51:00;20.70;99.90
23869;DHT22;12115;47.128;15.422;2022-10-19T12:05:48;20.80;99.90
23869;DHT22;12115;47.128;15.422;2022-10-19T12:14:29;20.60;99.90
23869;DHT22;12115;47.128;15.422;2022-10-19T12:17:01;20.50;99.90
23869;DHT22;12115;47.128;15.422;2022-10-19T12:19:38;20.50;99.90
23869;DHT22;12115;47.128;15.422;2022-10-19T12:22:19;20.40;99.90
23869;DHT22;12115;47.128;15.422;2022-10-19T12:24:58;20.40;99.90
23869;DHT22;12115;47.128;15.422;2022-10-19T12:27:45;20.50;99.90
23869;DHT22;12115;47.128;15.422;2022-10-19T12:30:14;20.50;99.90
23869;DHT22;12115;47.128;15.422;2022-10-19T12:38:23;20.10;99.90
23869;DHT22;12115;47.128;15.422;2022-10-19T12:40:58;20.10;99.90
23869;DHT22;12115;47.128;15.422;2022-10-19T12:46:49;20.20;99.90
23869;DHT22;12115;47.128;15.422;2022-10-19T12:51:59;20.20;99.90
23869;DHT22;12115;47.128;15.422;2022-10-19T12:54:28;20.10;99.90
23869;DHT22;12115;47.128;15.422;2022-10-19T12:56:59;20.20;99.90
23869;DHT22;12115;47.128;15.422;2022-10-19T12:59:34;20.10;99.90
23869;DHT22;12115;47.128;15.422;2022-10-19T13:02:26;20.10;99.90
23869;DHT22;12115;47.128;15.422;2022-10-19T13:05:20;20.30;99.90
23869;DHT22;12115;47.128;15.422;2022-10-19T13:07:55;20.10;99.90
23869;DHT22;12115;47.128;15.422;2022-10-19T13:10:27;20.10;99.90
23869;DHT22;12115;47.128;15.422;2022-10-19T13:12:58;20.20;99.90
23869;DHT22;12115;47.128;15.422;2022-10-19T13:18:11;20.00;99.90
23869;DHT22;12115;47.128;15.422;2022-10-19T13:20:58;20.00;99.90
23869;DHT22;12115;47.128;15.422;2022-10-19T13:26:31;20.00;99.90
23869;DHT22;12115;47.128;15.422;2022-10-19T13:29:02;19.80;99.90
23869;DHT22;12115;47.128;15.422;2022-10-19T13:31:30;19.80;99.90
23869;DHT22;12115;47.128;15.422;2022-10-19T13:33:57;19.80;99.90
23869;DHT22;12115;47.128;15.422;2022-10-19T13:36:25;19.80;99.90
23869;DHT22;12115;47.128;15.422;2022-10-19T13:46:38;19.70;99.90
23869;DHT22;12115;47.128;15.422;2022-10-19T13:49:27;19.80;99.90
23869;DHT22;12115;47.128;15.422;2022-10-19T14:00:25;19.80;99.90
23869;DHT22;12115;47.128;15.422;2022-10-19T14:08:55;19.90;99.90
23869;DHT22;12115;47.128;15.422;2022-10-19T14:11:31;19.80;99.90
23869;DHT22;12115;47.128;15.422;2022-10-19T14:16:52;19.70;99.90
23869;DHT22;12115;47.128;15.422;2022-10-19T14:19:39;19.70;99.90
23869;DHT22;12115;47.128;15.422;2022-10-19T14:22:24;19.70;99.90
23869;DHT22;12115;47.128;15.422;2022-10-19T14:25:00;19.80;99.90
23869;DHT22;12115;47.128;15.422;2022-10-19T14:27:29;19.80;99.90
23869;DHT22;12115;47.128;15.422;2022-10-19T14:29:57;19.80;99.90
23869;DHT22;12115;47.128;15.422;2022-10-19T14:32:26;19.80;99.90
23869;DHT22;12115;47.128;15.422;2022-10-19T14:35:03;19.80;99.90
23869;DHT22;12115;47.128;15.422;2022-10-19T14:37:35;19.80;99.90
23869;DHT22;12115;47.128;15.422;2022-10-19T14:40:22;19.70;99.90
23869;DHT22;12115;47.128;15.422;2022-10-19T14:42:54;19.60;99.90
23869;DHT22;12115;47.128;15.422;2022-10-19T14:45:31;19.50;99.90
23869;DHT22;12115;47.128;15.422;2022-10-19T14:48:14;19.60;99.90
23869;DHT22;12115;47.128;15.422;2022-10-19T14:50:48;19.70;99.90
23869;DHT22;12115;47.128;15.422;2022-10-19T14:53:35;19.70;99.90
23869;DHT22;12115;47.128;15.422;2022-10-19T14:56:54;19.60;99.90
23869;DHT22;12115;47.128;15.422;2022-10-19T14:58:59;19.50;99.90
23869;DHT22;12115;47.128;15.422;2022-10-19T15:01:26;19.50;99.90
23869;DHT22;12115;47.128;15.422;2022-10-19T15:03:53;19.50;99.90
23869;DHT22;12115;47.128;15.422;2022-10-19T15:06:24;19.40;99.90
23869;DHT22;12115;47.128;15.422;2022-10-19T15:08:56;19.40;99.90
23869;DHT22;12115;47.128;15.422;2022-10-19T15:11:32;19.30;99.90
23869;DHT22;12115;47.128;15.422;2022-10-19T15:14:08;19.30;99.90
23869;DHT22;12115;47.128;15.422;2022-10-19T15:19:10;19.30;99.90
23869;DHT22;12115;47.128;15.422;2022-10-19T15:21:40;19.30;99.90
23869;DHT22;12115;47.128;15.422;2022-10-19T15:24:34;19.20;99.90
23869;DHT22;12115;47.128;15.422;2022-10-19T15:27:10;19.20;99.90
23869;DHT22;12115;47.128;15.422;2022-10-19T15:29:55;19.20;99.90
23869;DHT22;12115;47.128;15.422;2022-10-19T15:32:35;19.20;99.90
23869;DHT22;12115;47.128;15.422;2022-10-19T15:35:32;19.10;99.90
23869;DHT22;12115;47.128;15.422;2022-10-19T15:38:17;19.00;99.90
23869;DHT22;12115;47.128;15.422;2022-10-19T15:40:46;18.90;99.90
23869;DHT22;12115;47.128;15.422;2022-10-19T15:43:42;18.90;99.90
23869;DHT22;12115;47.128;15.422;2022-10-19T15:46:26;18.80;99.90
23869;DHT22;12115;47.128;15.422;2022-10-19T15:50:06;18.80;99.90
23869;DHT22;12115;47.128;15.422;2022-10-19T15:52:31;18.60;99.90
23869;DHT22;12115;47.128;15.422;2022-10-19T15:55:03;18.60;99.90
23869;DHT22;12115;47.128;15.422;2022-10-19T15:57:36;18.60;99.90
23869;DHT22;12115;47.128;15.422;2022-10-19T16:00:14;18.60;99.90
23869;DHT22;12115;47.128;15.422;2022-10-19T16:02:43;18.60;99.90
23869;DHT22;12115;47.128;15.422;2022-10-19T16:05:11;18.60;99.90
23869;DHT22;12115;47.128;15.422;2022-10-19T16:07:41;18.50;99.90
23869;DHT22;12115;47.128;15.422;2022-10-19T16:10:17;18.50;99.90
23869;DHT22;12115;47.128;15.422;2022-10-19T16:12:49;18.50;99.90
23869;DHT22;12115;47.128;15.422;2022-10-19T16:15:21;18.50;99.90
23869;DHT22;12115;47.128;15.422;2022-10-19T16:17:52;18.40;99.90
23869;DHT22;12115;47.128;15.422;2022-10-19T16:20:19;18.30;99.90
23869;DHT22;12115;47.128;15.422;2022-10-19T16:22:47;18.40;99.90
23869;DHT22;12115;47.128;15.422;2022-10-19T16:25:15;18.20;99.90
23869;DHT22;12115;47.128;15.422;2022-10-19T16:27:42;18.20;99.90
23869;DHT22;12115;47.128;15.422;2022-10-19T16:30:10;18.20;99.90
23869;DHT22;12115;47.128;15.422;2022-10-19T16:32:37;18.20;99.90
23869;DHT22;12115;47.128;15.422;2022-10-19T16:35:11;18.10;99.90
23869;DHT22;12115;47.128;15.422;2022-10-19T16:37:38;18.10;99.90
23869;DHT22;12115;47.128;15.422;2022-10-19T16:40:06;18.10;99.90
23869;DHT22;12115;47.128;15.422;2022-10-19T16:42:33;18.10;99.90
23869;DHT22;12115;47.128;15.422;2022-10-19T16:45:02;18.00;99.90
23869;DHT22;12115;47.128;15.422;2022-10-19T16:47:29;18.00;99.90
23869;DHT22;12115;47.128;15.422;2022-10-19T16:50:01;17.90;99.90
23869;DHT22;12115;47.128;15.422;2022-10-19T16:52:28;17.90;99.90
23869;DHT22;12115;47.128;15.422;2022-10-19T16:54:58;17.90;99.90
23869;DHT22;12115;47.128;15.422;2022-10-19T16:57:26;17.90;99.90
23869;DHT22;12115;47.128;15.422;2022-10-19T16:59:54;17.90;99.90
23869;DHT22;12115;47.128;15.422;2022-10-19T17:02:21;17.90;99.90
23869;DHT22;12115;47.128;15.422;2022-10-19T17:04:49;17.90;99.90
23869;DHT22;12115;47.128;15.422;2022-10-19T17:07:17;17.80;99.90
23869;DHT22;12115;47.128;15.422;2022-10-19T17:09:44;17.80;99.90
23869;DHT22;12115;47.128;15.422;2022-10-19T17:12:14;17.80;99.90
23869;DHT22;12115;47.128;15.422;2022-10-19T17:14:42;17.70;99.90
23869;DHT22;12115;47.128;15.422;2022-10-19T17:17:09;17.70;99.90
23869;DHT22;12115;47.128;15.422;2022-10-19T17:19:37;17.70;99.90
23869;DHT22;12115;47.128;15.422;2022-10-19T17:22:05;17.70;99.90
23869;DHT22;12115;47.128;15.422;2022-10-19T17:24:32;17.70;99.90
23869;DHT22;12115;47.128;15.422;2022-10-19T17:27:04;17.60;99.90
23869;DHT22;12115;47.128;15.422;2022-10-19T17:29:33;17.60;99.90
23869;DHT22;12115;47.128;15.422;2022-10-19T17:32:01;17.60;99.90
23869;DHT22;12115;47.128;15.422;2022-10-19T17:34:29;17.60;99.90
23869;DHT22;12115;47.128;15.422;2022-10-19T17:36:57;17.60;99.90
23869;DHT22;12115;47.128;15.422;2022-10-19T17:39:25;17.60;99.90
23869;DHT22;12115;47.128;15.422;2022-10-19T17:41:57;17.50;99.90
23869;DHT22;12115;47.128;15.422;2022-10-19T17:44:29;17.40;99.90
23869;DHT22;12115;47.128;15.422;2022-10-19T17:46:58;17.40;99.90
23869;DHT22;12115;47.128;15.422;2022-10-19T17:49:26;17.40;99.90
23869;DHT22;12115;47.128;15.422;2022-10-19T17:51:56;17.40;99.90
23869;DHT22;12115;47.128;15.422;2022-10-19T17:54:24;17.40;99.90
23869;DHT22;12115;47.128;15.422;2022-10-19T17:56:52;17.50;99.90
23869;DHT22;12115;47.128;15.422;2022-10-19T17:59:26;17.40;99.90
23869;DHT22;12115;47.128;15.422;2022-10-19T18:02:08;17.40;99.90
23869;DHT22;12115;47.128;15.422;2022-10-19T18:04:39;17.30;99.90
23869;DHT22;12115;47.128;15.422;2022-10-19T18:07:07;17.40;99.90
23869;DHT22;12115;47.128;15.422;2022-10-19T18:09:35;17.40;99.90